Time;durP1;ratioP1;P1;durP2;ratioP2;P2;SDS_P1;SDS_P2;PMS_P1;PMS_P2;Temp;Humidity;BMP_temperature;BMP_pressure;BME280_temperature;BME280_humidity;BME280_pressure;Samples;Min_cycle;Max_cycle;Signal;HPM_P1;HPM_P2
2023/04/23 00:01:25;;;;;;;10.68;8.07;;;16.70;99.90;;;;;;5054379;28;20606;-76
2023/04/23 00:03:54;;;;;;;11.02;7.97;;;16.70;99.90;;;;;;5048438;28;20288;-76
2023/04/23 00:06:21;;;;;;;14.10;7.82;;;16.60;99.90;;;;;;5039174;28;20208;-75
2023/04/23 00:08:47;;;;;;;9.70;7.65;;;16.60;99.90;;;;;;5049178;28;20691;-75
2023/04/23 00:11:13;;;;;;;11.57;7.75;;;16.50;99.90;;;;;;5040594;28;20207;-76
2023/04/23 00:13:39;;;;;;;9.50;7.43;;;16.50;99.90;;;;;;5045536;28;20204;-75
2023/04/23 00:16:05;;;;;;;9.18;7.70;;;16.50;99.90;;;;;;5043383;28;20259;-76
2023/04/23 00:18:31;;;;;;;16.02;7.72;;;16.50;99.90;;;;;;5042083;28;20669;-75
2023/04/23 00:20:56;;;;;;;10.13;7.82;;;16.40;99.90;;;;;;5043707;28;20210;-76
2023/04/23 00:23:22;;;;;;;9.48;8.20;;;16.40;99.90;;;;;;5055260;28;20614;-75
2023/04/23 00:25:48;;;;;;;10.45;7.63;;;16.40;99.90;;;;;;5049821;28;20220;-76
2023/04/23 00:28:15;;;;;;;11.13;7.63;;;16.40;99.90;;;;;;5043264;28;20720;-74
2023/04/23 00:30:40;;;;;;;13.07;7.82;;;16.40;99.90;;;;;;5049544;28;20545;-76
2023/04/23 00:33:06;;;;;;;9.68;7.38;;;16.30;99.90;;;;;;5061601;28;20290;-74
2023/04/23 00:35:32;;;;;;;9.93;6.85;;;16.30;99.90;;;;;;5043926;28;20302;-76
2023/04/23 00:37:57;;;;;;;11.60;7.95;;;16.30;99.90;;;;;;5043993;28;20269;-78
2023/04/23 00:40:23;;;;;;;11.38;8.43;;;16.30;99.90;;;;;;5046299;28;20231;-74
2023/04/23 00:42:52;;;;;;;9.65;7.85;;;16.30;99.90;;;;;;5051624;28;20187;-76
2023/04/23 00:45:18;;;;;;;14.13;8.60;;;16.30;99.90;;;;;;5045933;28;20585;-76
2023/04/23 00:47:45;;;;;;;10.25;8.50;;;16.30;99.90;;;;;;5041831;28;20382;-76
2023/04/23 00:50:12;;;;;;;10.32;7.35;;;16.20;99.90;;;;;;5045338;28;20294;-75
2023/04/23 00:52:39;;;;;;;12.48;8.10;;;16.20;99.90;;;;;;5043283;28;20208;-75
2023/04/23 00:55:07;;;;;;;11.18;7.82;;;16.20;99.90;;;;;;5036890;28;20273;-75
2023/04/23 00:57:33;;;;;;;10.88;8.23;;;16.20;99.90;;;;;;5037683;28;20261;-74
2023/04/23 00:59:59;;;;;;;11.85;8.70;;;16.10;99.90;;;;;;5046949;28;20209;-76
2023/04/23 01:02:27;;;;;;;12.35;8.85;;;16.20;99.90;;;;;;5043030;28;20204;-74
2023/04/23 01:04:53;;;;;;;13.43;8.80;;;16.20;99.90;;;;;;5051616;28;20202;-76
2023/04/23 01:07:20;;;;;;;8.88;7.60;;;16.10;99.90;;;;;;5017270;28;1122144;-76
2023/04/23 01:09:48;;;;;;;9.70;7.80;;;16.20;99.90;;;;;;5049080;28;20670;-74
2023/04/23 01:12:15;;;;;;;14.27;8.40;;;16.10;99.90;;;;;;5048661;28;20207;-76
2023/04/23 01:14:42;;;;;;;8.82;7.90;;;16.10;99.90;;;;;;5047309;28;20261;-76
2023/04/23 01:17:08;;;;;;;10.18;8.02;;;16.10;99.90;;;;;;5037535;28;20679;-74
2023/04/23 01:19:34;;;;;;;16.80;9.00;;;16.10;99.90;;;;;;5036090;28;20261;-74
2023/04/23 01:22:00;;;;;;;11.43;8.32;;;16.10;99.90;;;;;;5046404;28;20538;-75
2023/04/23 01:24:28;;;;;;;11.95;8.82;;;16.10;99.90;;;;;;5042651;28;20229;-75
2023/04/23 01:26:54;;;;;;;11.00;8.52;;;16.10;99.90;;;;;;5046340;28;20210;-76
2023/04/23 01:29:20;;;;;;;13.45;8.65;;;16.10;99.90;;;;;;5033602;28;20208;-75
2023/04/23 01:31:47;;;;;;;10.20;8.88;;;16.10;99.90;;;;;;5045179;28;21015;-74
2023/04/23 01:34:13;;;;;;;12.20;8.52;;;16.10;99.90;;;;;;5040013;28;20247;-76
2023/04/23 01:36:42;;;;;;;11.13;8.77;;;16.10;99.90;;;;;;5037930;28;20218;-75
2023/04/23 01:39:08;;;;;;;11.63;8.32;;;16.00;99.90;;;;;;5054999;28;20230;-76
2023/04/23 01:41:34;;;;;;;10.32;7.80;;;16.10;99.90;;;;;;5057774;28;20694;-73
2023/04/23 01:44:00;;;;;;;9.38;7.95;;;16.10;99.90;;;;;;5046282;28;20208;-74
2023/04/23 01:46:27;;;;;;;10.40;8.13;;;16.10;99.90;;;;;;5046219;28;20593;-75
2023/04/23 01:48:52;;;;;;;12.27;8.63;;;16.20;99.90;;;;;;5042127;28;20179;-76
2023/04/23 01:51:18;;;;;;;9.75;7.70;;;16.10;99.90;;;;;;5059930;28;20172;-76
2023/04/23 01:53:44;;;;;;;12.63;9.07;;;16.00;99.90;;;;;;5046339;28;20287;-74
2023/04/23 01:56:10;;;;;;;13.02;8.27;;;16.00;99.90;;;;;;5041572;28;20262;-73
2023/04/23 01:58:36;;;;;;;10.55;8.48;;;16.00;99.90;;;;;;5040051;28;20286;-75
2023/04/23 02:01:02;;;;;;;11.70;8.65;;;15.90;99.90;;;;;;5045138;28;20254;-75
2023/04/23 02:03:29;;;;;;;12.77;9.02;;;15.80;99.90;;;;;;5047734;28;20172;-73
2023/04/23 02:05:55;;;;;;;12.93;9.45;;;15.40;99.90;;;;;;5038522;28;21680;-75
2023/04/23 02:08:21;;;;;;;15.52;8.95;;;15.50;99.90;;;;;;5032690;28;20234;-75
2023/04/23 02:10:47;;;;;;;16.73;10.43;;;15.40;99.90;;;;;;5037852;28;20208;-75
2023/04/23 02:13:13;;;;;;;9.43;8.25;;;15.40;99.90;;;;;;5036332;28;20215;-75
2023/04/23 02:15:39;;;;;;;10.48;9.20;;;15.30;99.90;;;;;;5037844;28;20199;-73
2023/04/23 02:18:05;;;;;;;13.73;8.82;;;15.10;99.90;;;;;;5037601;28;20207;-77
2023/04/23 02:20:31;;;;;;;11.40;8.85;;;15.30;99.90;;;;;;5042136;28;20207;-77
2023/04/23 02:22:57;;;;;;;13.70;10.27;;;15.30;99.90;;;;;;5045114;28;20204;-74
2023/04/23 02:25:23;;;;;;;13.80;10.77;;;15.40;99.90;;;;;;5034088;28;20215;-73
2023/04/23 02:27:49;;;;;;;14.23;11.32;;;15.40;99.90;;;;;;5034493;28;20577;-75
2023/04/23 02:30:15;;;;;;;13.02;11.15;;;15.40;99.90;;;;;;5034911;28;20203;-74
2023/04/23 02:32:41;;;;;;;15.10;10.32;;;15.40;99.90;;;;;;5039499;28;20211;-73
2023/04/23 02:35:09;;;;;;;11.55;9.65;;;15.40;99.90;;;;;;5030952;28;20212;-73
2023/04/23 02:37:35;;;;;;;11.57;10.32;;;15.50;99.90;;;;;;5042110;28;20631;-74
2023/04/23 02:40:02;;;;;;;14.65;10.77;;;15.50;99.90;;;;;;5040489;28;20172;-77
2023/04/23 02:42:28;;;;;;;14.52;10.43;;;15.40;99.90;;;;;;5037306;28;20259;-75
2023/04/23 02:44:54;;;;;;;12.98;9.95;;;15.40;99.90;;;;;;5040966;28;20240;-75
2023/04/23 02:47:19;;;;;;;15.40;10.90;;;15.30;99.90;;;;;;5039707;28;20232;-76
2023/04/23 02:49:45;;;;;;;14.75;10.25;;;15.20;99.90;;;;;;5035540;28;20216;-76
2023/04/23 02:52:11;;;;;;;10.30;9.20;;;15.20;99.90;;;;;;5035146;28;20208;-77
2023/04/23 02:54:36;;;;;;;13.95;10.57;;;15.20;99.90;;;;;;5044190;28;20285;-77
2023/04/23 02:57:03;;;;;;;17.70;12.40;;;15.30;99.90;;;;;;5058681;28;20538;-77
2023/04/23 02:59:29;;;;;;;13.68;9.52;;;15.40;99.90;;;;;;5050867;28;20689;-76
2023/04/23 03:01:55;;;;;;;13.75;10.55;;;15.30;99.90;;;;;;5050413;28;20212;-76
2023/04/23 03:04:20;;;;;;;13.45;10.73;;;15.40;99.90;;;;;;5036060;28;20313;-76
2023/04/23 03:06:46;;;;;;;11.75;9.27;;;15.40;99.90;;;;;;5046795;28;20216;-76
2023/04/23 03:09:12;;;;;;;13.68;9.05;;;15.50;99.90;;;;;;5048836;28;20251;-75
2023/04/23 03:11:38;;;;;;;12.80;9.50;;;15.40;99.90;;;;;;5032015;28;20602;-76
2023/04/23 03:14:03;;;;;;;11.57;8.82;;;15.50;99.90;;;;;;5036391;28;20318;-76
2023/04/23 03:16:30;;;;;;;13.55;9.48;;;15.50;99.90;;;;;;5050345;28;20218;-75
2023/04/23 03:18:56;;;;;;;15.68;10.30;;;15.40;99.90;;;;;;5037608;28;20234;-76
2023/04/23 03:21:22;;;;;;;11.43;9.70;;;15.50;99.90;;;;;;5041474;28;20254;-76
2023/04/23 03:23:47;;;;;;;14.05;10.98;;;15.60;99.90;;;;;;5047174;28;20294;-76
2023/04/23 03:26:13;;;;;;;12.85;9.30;;;15.60;99.90;;;;;;5036420;28;20223;-77
2023/04/23 03:28:38;;;;;;;14.15;11.25;;;15.60;99.90;;;;;;5030119;28;20212;-77
2023/04/23 03:31:04;;;;;;;12.98;10.27;;;15.60;99.90;;;;;;5038614;28;20167;-74
2023/04/23 03:33:30;;;;;;;13.93;9.43;;;15.60;99.90;;;;;;5049780;28;20207;-75
2023/04/23 03:35:58;;;;;;;14.25;10.07;;;15.60;99.90;;;;;;5049358;28;20219;-76
2023/04/23 03:38:24;;;;;;;15.50;9.95;;;15.50;99.90;;;;;;5044343;28;20345;-75
2023/04/23 03:40:50;;;;;;;11.57;9.05;;;15.50;99.90;;;;;;5037617;28;20220;-77
2023/04/23 03:43:16;;;;;;;11.52;9.60;;;15.50;99.90;;;;;;5044993;28;20244;-77
2023/04/23 03:45:41;;;;;;;11.15;9.05;;;15.50;99.90;;;;;;5047388;28;20175;-74
2023/04/23 03:48:07;;;;;;;12.40;8.93;;;15.40;99.90;;;;;;5039589;28;20203;-77
2023/04/23 03:50:37;;;;;;;11.18;8.70;;;15.50;99.90;;;;;;5049938;28;20196;-77
2023/04/23 03:53:03;;;;;;;12.35;9.38;;;15.40;99.90;;;;;;5044174;28;20204;-77
2023/04/23 03:55:29;;;;;;;11.70;9.48;;;15.40;99.90;;;;;;5032098;28;20226;-77
2023/04/23 03:57:54;;;;;;;14.13;8.68;;;15.40;99.90;;;;;;5036136;28;20204;-76
2023/04/23 04:00:20;;;;;;;17.15;12.88;;;15.40;99.90;;;;;;5050938;28;20187;-76
2023/04/23 04:02:46;;;;;;;13.05;9.82;;;15.40;99.90;;;;;;5050270;28;20262;-76
2023/04/23 04:05:12;;;;;;;13.23;9.32;;;15.40;99.90;;;;;;5043660;28;20568;-77
2023/04/23 04:07:38;;;;;;;14.60;9.60;;;15.40;99.90;;;;;;5041583;28;20223;-76
2023/04/23 04:10:05;;;;;;;12.10;9.52;;;15.50;99.90;;;;;;5041258;28;20180;-76
2023/04/23 04:12:31;;;;;;;11.85;9.52;;;15.50;99.90;;;;;;5040701;28;20183;-77
2023/04/23 04:14:56;;;;;;;13.45;9.05;;;15.50;99.90;;;;;;5048957;28;20294;-77
2023/04/23 04:17:22;;;;;;;10.40;8.73;;;15.50;99.90;;;;;;5036915;28;20204;-75
2023/04/23 04:19:47;;;;;;;9.25;8.25;;;15.50;99.90;;;;;;5036793;28;20216;-76
2023/04/23 04:22:15;;;;;;;12.60;8.98;;;15.50;99.90;;;;;;5048608;28;20214;-77
2023/04/23 04:24:40;;;;;;;10.45;8.25;;;15.40;99.90;;;;;;5036201;28;20204;-77
2023/04/23 04:27:07;;;;;;;10.80;8.00;;;15.40;99.90;;;;;;5035276;28;20204;-77
2023/04/23 04:29:33;;;;;;;12.85;9.57;;;15.40;99.90;;;;;;5043393;28;20422;-75
2023/04/23 04:32:00;;;;;;;12.02;8.65;;;15.40;99.90;;;;;;5043780;28;20218;-75
2023/04/23 04:34:25;;;;;;;13.25;9.07;;;15.40;99.90;;;;;;5051734;28;20223;-75
2023/04/23 04:36:52;;;;;;;17.67;11.25;;;15.40;99.90;;;;;;5037990;28;20200;-74
2023/04/23 04:39:19;;;;;;;14.23;9.35;;;15.60;99.90;;;;;;5044451;28;20172;-77
2023/04/23 04:41:45;;;;;;;13.02;9.35;;;15.60;99.90;;;;;;5033936;28;20218;-75
2023/04/23 04:44:13;;;;;;;11.98;8.60;;;15.60;99.90;;;;;;5033387;28;20196;-75
2023/04/23 04:46:39;;;;;;;11.63;9.70;;;15.70;99.90;;;;;;5038234;28;20212;-75
2023/04/23 04:49:09;;;;;;;10.63;8.40;;;15.70;99.90;;;;;;5032554;28;20176;-75
2023/04/23 04:51:39;;;;;;;14.52;10.18;;;15.60;99.90;;;;;;5041258;28;20181;-76
2023/04/23 04:54:06;;;;;;;9.93;7.72;;;15.70;99.90;;;;;;5041460;28;20207;-75
2023/04/23 04:56:32;;;;;;;11.88;8.25;;;15.60;99.90;;;;;;5054364;28;20204;-77
2023/04/23 04:58:58;;;;;;;12.98;8.50;;;15.50;99.90;;;;;;5037173;28;20224;-74
2023/04/23 05:01:26;;;;;;;11.15;8.80;;;15.60;99.90;;;;;;5039435;28;20215;-74
2023/04/23 05:03:52;;;;;;;12.20;8.23;;;15.50;99.90;;;;;;5046565;28;20260;-75
2023/04/23 05:06:18;;;;;;;10.85;8.63;;;15.50;99.90;;;;;;5045333;28;20414;-75
2023/04/23 05:08:46;;;;;;;10.63;8.20;;;15.40;99.90;;;;;;5044934;28;20262;-75
2023/04/23 05:11:17;;;;;;;10.68;6.95;;;15.60;99.90;;;;;;5044706;28;20674;-76
2023/04/23 05:13:44;;;;;;;12.80;7.85;;;15.50;99.90;;;;;;5031974;28;20247;-75
2023/04/23 05:16:10;;;;;;;10.65;7.88;;;15.70;99.90;;;;;;5040189;28;20172;-75
2023/04/23 05:18:37;;;;;;;11.75;7.40;;;15.70;99.90;;;;;;5040011;28;20165;-76
2023/04/23 05:21:02;;;;;;;10.18;7.03;;;15.80;99.90;;;;;;5039733;28;20722;-76
2023/04/23 05:23:28;;;;;;;12.93;8.93;;;15.90;99.90;;;;;;5043224;28;20208;-76
2023/04/23 05:25:55;;;;;;;11.25;7.20;;;16.10;99.90;;;;;;5040490;28;20235;-76
2023/04/23 05:28:21;;;;;;;10.57;7.38;;;16.10;99.90;;;;;;5035957;28;20216;-74
2023/04/23 05:30:48;;;;;;;10.15;6.30;;;16.30;99.90;;;;;;5047950;28;20249;-72
2023/04/23 05:33:14;;;;;;;10.65;6.65;;;16.50;99.90;;;;;;5043041;28;20282;-75
2023/04/23 05:35:40;;;;;;;9.23;7.00;;;16.40;99.90;;;;;;5042475;28;20313;-75
2023/04/23 05:38:06;;;;;;;10.73;8.52;;;16.30;99.90;;;;;;5044280;28;20261;-75
2023/04/23 05:40:32;;;;;;;12.60;6.63;;;16.30;99.90;;;;;;5038714;28;20211;-76
2023/04/23 05:42:58;;;;;;;9.35;6.68;;;16.10;99.90;;;;;;5046321;28;20176;-75
2023/04/23 05:45:24;;;;;;;8.95;6.75;;;16.00;99.90;;;;;;5038049;28;20260;-73
2023/04/23 05:47:50;;;;;;;9.18;7.68;;;15.90;99.90;;;;;;5035491;28;20366;-74
2023/04/23 05:50:16;;;;;;;9.75;7.90;;;15.90;99.90;;;;;;5034916;28;20204;-75
2023/04/23 05:52:42;;;;;;;9.35;7.18;;;15.90;99.90;;;;;;5034612;28;20568;-75
2023/04/23 05:55:08;;;;;;;10.68;6.65;;;15.90;99.90;;;;;;5033851;28;20200;-73
2023/04/23 05:57:35;;;;;;;9.05;7.40;;;15.80;99.90;;;;;;5038498;28;20203;-75
2023/04/23 06:00:01;;;;;;;10.48;6.75;;;16.10;99.90;;;;;;5032735;28;20269;-76
2023/04/23 06:02:28;;;;;;;9.65;6.80;;;16.20;99.90;;;;;;5038655;28;20204;-74
2023/04/23 06:04:54;;;;;;;11.20;6.93;;;16.30;99.90;;;;;;5040136;28;20709;-75
2023/04/23 06:07:19;;;;;;;8.68;6.63;;;16.30;99.90;;;;;;5030876;28;20266;-75
2023/04/23 06:09:45;;;;;;;8.80;6.53;;;16.20;99.90;;;;;;5039445;28;20175;-74
2023/04/23 06:12:10;;;;;;;9.70;6.93;;;16.00;99.90;;;;;;5048718;28;20202;-75
2023/04/23 06:14:36;;;;;;;10.50;6.45;;;15.80;99.90;;;;;;5038348;28;20216;-75
2023/04/23 06:17:02;;;;;;;17.65;11.60;;;15.90;99.90;;;;;;5038585;28;20216;-75
2023/04/23 06:19:27;;;;;;;23.27;16.25;;;16.00;99.90;;;;;;5044851;28;20214;-75
2023/04/23 06:21:53;;;;;;;10.15;7.45;;;15.90;99.90;;;;;;5042720;28;20197;-75
2023/04/23 06:24:19;;;;;;;16.10;11.38;;;16.00;99.90;;;;;;5035379;28;20176;-76
2023/04/23 06:26:45;;;;;;;9.25;6.65;;;16.10;99.90;;;;;;5035264;28;20231;-76
2023/04/23 06:29:10;;;;;;;9.73;7.05;;;16.00;99.90;;;;;;5036503;28;20261;-76
2023/04/23 06:31:36;;;;;;;9.68;6.97;;;16.10;99.90;;;;;;5034950;28;20211;-77
2023/04/23 06:34:02;;;;;;;22.35;17.05;;;16.00;99.90;;;;;;5042237;28;20242;-76
2023/04/23 06:36:28;;;;;;;12.52;7.88;;;16.00;99.90;;;;;;5038529;28;20184;-76
2023/04/23 06:38:53;;;;;;;9.73;6.90;;;16.00;99.90;;;;;;5044986;28;20277;-76
2023/04/23 06:41:20;;;;;;;22.50;15.23;;;16.00;99.90;;;;;;5035086;28;20757;-76
2023/04/23 06:43:47;;;;;;;12.65;9.45;;;16.00;99.90;;;;;;5031428;28;21015;-76
2023/04/23 06:46:13;;;;;;;15.20;10.82;;;15.80;99.90;;;;;;5036685;28;20199;-76
2023/04/23 06:48:39;;;;;;;13.57;8.63;;;15.70;99.90;;;;;;5040132;28;20172;-76
2023/04/23 06:51:05;;;;;;;17.92;14.18;;;15.80;99.90;;;;;;5035194;28;20231;-75
2023/04/23 06:53:31;;;;;;;12.15;7.90;;;15.80;99.90;;;;;;5038821;28;20763;-76
2023/04/23 06:55:56;;;;;;;8.18;6.00;;;15.80;99.90;;;;;;5035768;28;20212;-75
2023/04/23 06:58:26;;;;;;;12.18;9.02;;;15.70;99.90;;;;;;5043789;28;20208;-75
2023/04/23 07:00:52;;;;;;;8.93;8.02;;;15.70;99.90;;;;;;5046082;28;20664;-75
2023/04/23 07:03:18;;;;;;;10.32;8.30;;;15.70;99.90;;;;;;5039916;28;20183;-76
2023/04/23 07:05:44;;;;;;;16.60;12.48;;;15.70;99.90;;;;;;5032451;28;20236;-77
2023/04/23 07:08:09;;;;;;;8.10;5.80;;;15.60;99.90;;;;;;5042339;28;21194;-77
2023/04/23 07:10:35;;;;;;;11.23;5.70;;;15.50;99.90;;;;;;5034847;28;20204;-77
2023/04/23 07:13:01;;;;;;;10.77;6.82;;;15.40;99.90;;;;;;5038066;28;20184;-75
2023/04/23 07:15:27;;;;;;;8.10;5.55;;;15.50;99.90;;;;;;5038352;28;20199;-76
2023/04/23 07:17:52;;;;;;;8.45;5.82;;;15.30;99.90;;;;;;5036169;28;20216;-75
2023/04/23 07:20:18;;;;;;;6.88;5.75;;;15.00;99.90;;;;;;5040322;28;20794;-75
2023/04/23 07:22:46;;;;;;;18.08;10.50;;;15.10;99.90;;;;;;5036708;28;20605;-76
2023/04/23 07:25:11;;;;;;;6.63;5.93;;;15.20;99.90;;;;;;5037766;28;20211;-76
2023/04/23 07:27:37;;;;;;;11.00;7.32;;;15.20;99.90;;;;;;5038993;28;20184;-77
2023/04/23 07:30:03;;;;;;;16.50;11.80;;;15.20;99.90;;;;;;5046313;28;20207;-76
2023/04/23 07:32:29;;;;;;;15.35;10.43;;;15.30;99.90;;;;;;5045947;28;20716;-77
2023/04/23 07:34:55;;;;;;;13.65;10.30;;;15.40;99.90;;;;;;5040139;28;20220;-74
2023/04/23 07:37:21;;;;;;;13.30;10.18;;;15.40;99.90;;;;;;5051903;28;20235;-75
2023/04/23 07:39:47;;;;;;;13.88;10.65;;;15.40;99.90;;;;;;5048318;28;20187;-77
2023/04/23 07:42:12;;;;;;;12.60;9.30;;;15.20;99.90;;;;;;5029297;28;20593;-77
2023/04/23 07:44:38;;;;;;;24.73;16.77;;;15.20;99.90;;;;;;5040075;28;20210;-76
2023/04/23 07:47:04;;;;;;;17.30;11.30;;;15.30;99.90;;;;;;5032142;28;20204;-75
2023/04/23 07:49:30;;;;;;;10.80;8.27;;;15.50;99.90;;;;;;5047463;28;20203;-76
2023/04/23 07:51:55;;;;;;;11.55;8.60;;;15.50;99.90;;;;;;5032933;28;20184;-74
2023/04/23 07:54:21;;;;;;;9.90;7.28;;;15.60;99.90;;;;;;5037613;28;20201;-75
2023/04/23 07:56:47;;;;;;;17.13;13.75;;;15.50;99.90;;;;;;5036275;28;20231;-77
2023/04/23 07:59:12;;;;;;;9.98;7.25;;;15.70;99.90;;;;;;5038314;28;20246;-76
2023/04/23 08:01:38;;;;;;;10.30;6.53;;;15.70;99.90;;;;;;5038587;28;20664;-77
2023/04/23 08:04:04;;;;;;;9.02;7.03;;;15.50;99.90;;;;;;5045136;28;20636;-76
2023/04/23 08:06:30;;;;;;;13.15;6.97;;;15.50;99.90;;;;;;5041005;28;20203;-77
2023/04/23 08:08:56;;;;;;;13.43;8.15;;;15.40;99.90;;;;;;5038466;28;20263;-75
2023/04/23 08:11:22;;;;;;;10.13;6.85;;;15.50;99.90;;;;;;5035977;28;20291;-76
2023/04/23 08:13:48;;;;;;;16.67;11.98;;;15.40;99.90;;;;;;5032726;28;20201;-77
2023/04/23 08:16:14;;;;;;;8.75;7.30;;;15.50;99.90;;;;;;5049632;28;20207;-76
2023/04/23 08:18:40;;;;;;;8.65;6.80;;;15.60;99.90;;;;;;5034910;28;20205;-76
2023/04/23 08:21:06;;;;;;;17.00;11.13;;;15.70;99.90;;;;;;5041133;28;20212;-76
2023/04/23 08:23:31;;;;;;;11.15;7.18;;;15.80;99.90;;;;;;5035899;28;20258;-77
2023/04/23 08:25:57;;;;;;;14.43;10.00;;;15.80;99.90;;;;;;5034019;28;20208;-75
2023/04/23 08:28:23;;;;;;;15.40;9.88;;;16.00;99.90;;;;;;5042363;28;20272;-76
2023/04/23 08:30:48;;;;;;;12.68;10.13;;;16.00;99.90;;;;;;5035796;28;20235;-77
2023/04/23 08:33:14;;;;;;;16.13;11.10;;;16.00;99.90;;;;;;5043087;28;20366;-77
2023/04/23 08:35:40;;;;;;;8.40;7.20;;;16.10;99.90;;;;;;5046280;28;20299;-77
2023/04/23 08:38:06;;;;;;;11.50;8.65;;;16.10;99.90;;;;;;5038296;28;20220;-76
2023/04/23 08:40:35;;;;;;;30.38;21.95;;;16.20;99.90;;;;;;5033324;28;20223;-76
2023/04/23 08:43:05;;;;;;;15.25;8.70;;;16.40;99.90;;;;;;5040809;28;20184;-75
2023/04/23 08:45:40;;;;;;;7.93;6.72;;;16.60;99.90;;;;;;5051327;28;20183;-77
2023/04/23 08:48:06;;;;;;;10.73;8.52;;;16.80;99.90;;;;;;5046472;28;20207;-77
2023/04/23 08:50:32;;;;;;;10.48;8.35;;;17.10;99.90;;;;;;5051137;28;20587;-77
2023/04/23 08:52:58;;;;;;;9.55;7.47;;;17.00;99.90;;;;;;5054520;28;20269;-73
2023/04/23 08:55:25;;;;;;;11.35;8.00;;;16.70;99.90;;;;;;5047982;28;20262;-73
2023/04/23 08:57:51;;;;;;;9.85;6.65;;;16.30;99.90;;;;;;5034458;28;20698;-75
2023/04/23 09:00:19;;;;;;;19.88;11.85;;;16.00;99.90;;;;;;5043446;28;20180;-75
2023/04/23 09:02:47;;;;;;;20.75;11.82;;;15.90;99.90;;;;;;5041976;28;20229;-75
2023/04/23 09:05:13;;;;;;;21.55;11.25;;;15.70;99.90;;;;;;5054286;28;20214;-75
2023/04/23 09:07:40;;;;;;;9.98;6.88;;;15.50;99.90;;;;;;5037864;28;20278;-74
2023/04/23 09:10:08;;;;;;;17.88;11.38;;;15.40;99.90;;;;;;5035467;28;20493;-76
2023/04/23 09:12:35;;;;;;;12.07;8.02;;;15.50;99.90;;;;;;5043058;28;20184;-74
2023/04/23 09:15:01;;;;;;;9.55;7.97;;;15.30;99.90;;;;;;5044500;28;20239;-73
2023/04/23 09:17:29;;;;;;;12.07;9.43;;;15.40;99.90;;;;;;5041002;28;20227;-74
2023/04/23 09:19:55;;;;;;;10.20;7.75;;;15.40;99.90;;;;;;5032329;28;20238;-74
2023/04/23 09:22:46;;;;;;;9.82;7.38;;;15.30;99.90;;;;;;5050758;28;20228;-75
2023/04/23 09:25:13;;;;;;;9.18;6.15;;;14.90;99.90;;;;;;5049516;28;20239;-73
2023/04/23 09:27:40;;;;;;;8.05;6.20;;;14.80;99.90;;;;;;5042195;28;20203;-73
2023/04/23 09:30:09;;;;;;;14.02;9.63;;;14.80;99.90;;;;;;5046620;28;20211;-75
2023/04/23 09:32:36;;;;;;;12.38;7.95;;;14.80;99.90;;;;;;5044062;28;20204;-74
2023/04/23 09:35:03;;;;;;;8.35;5.70;;;14.90;99.90;;;;;;5043593;28;20231;-74
2023/04/23 09:37:29;;;;;;;5.45;4.85;;;14.80;99.90;;;;;;5035833;28;20235;-72
2023/04/23 09:40:03;;;;;;;5.13;4.60;;;14.70;99.90;;;;;;5044208;28;20227;-75
2023/04/23 09:42:31;;;;;;;6.43;4.30;;;14.70;99.90;;;;;;5053715;28;20264;-74
2023/04/23 09:45:04;;;;;;;4.45;3.72;;;14.70;99.90;;;;;;5032946;28;20614;-75
2023/04/23 09:47:36;;;;;;;5.78;4.60;;;14.70;99.90;;;;;;5037412;28;20702;-73
2023/04/23 09:50:03;;;;;;;9.18;6.20;;;14.60;99.90;;;;;;5038447;28;20207;-73
2023/04/23 09:52:31;;;;;;;6.93;4.80;;;14.60;99.90;;;;;;5032621;28;20211;-75
2023/04/23 09:55:00;;;;;;;8.50;6.15;;;14.50;99.90;;;;;;5033074;28;20196;-75
2023/04/23 09:57:25;;;;;;;5.97;5.05;;;14.50;99.90;;;;;;5036253;28;20239;-74
2023/04/23 09:59:51;;;;;;;6.63;5.28;;;14.80;99.90;;;;;;5041632;28;20204;-75
2023/04/23 10:02:17;;;;;;;7.00;5.38;;;14.60;99.90;;;;;;5038030;28;20208;-75
2023/04/23 10:04:43;;;;;;;6.60;5.15;;;14.50;99.90;;;;;;5036092;28;20208;-74
2023/04/23 10:07:12;;;;;;;5.60;4.60;;;14.60;99.90;;;;;;5039381;28;20242;-74
2023/04/23 10:09:40;;;;;;;6.05;4.97;;;14.70;99.90;;;;;;5035771;28;20194;-75
2023/04/23 10:12:07;;;;;;;6.65;5.97;;;14.60;99.90;;;;;;5036657;28;20212;-74
2023/04/23 10:14:33;;;;;;;5.97;5.20;;;14.70;99.90;;;;;;5039590;28;20234;-75
2023/04/23 10:17:03;;;;;;;5.82;4.85;;;14.50;99.90;;;;;;5048997;28;20210;-74
2023/04/23 10:19:30;;;;;;;6.70;5.72;;;14.70;99.90;;;;;;5036536;28;20210;-75
2023/04/23 10:22:04;;;;;;;6.47;5.57;;;14.80;99.90;;;;;;5038395;28;20184;-74
2023/04/23 10:24:32;;;;;;;8.48;7.57;;;14.70;99.90;;;;;;5040288;28;20260;-73
2023/04/23 10:27:03;;;;;;;13.25;10.23;;;14.80;99.90;;;;;;5033187;28;20216;-73
2023/04/23 10:29:31;;;;;;;12.18;9.18;;;14.90;99.90;;;;;;5040790;28;20231;-75
2023/04/23 10:32:02;;;;;;;18.90;13.55;;;14.80;99.90;;;;;;5037200;28;20214;-75
2023/04/23 10:34:30;;;;;;;12.18;9.45;;;14.90;99.90;;;;;;5032012;28;20216;-75
2023/04/23 10:36:58;;;;;;;10.00;8.38;;;15.00;99.90;;;;;;5030644;28;20200;-75
2023/04/23 10:39:35;;;;;;;11.20;7.93;;;15.20;99.90;;;;;;5041252;28;20173;-72
2023/04/23 10:42:01;;;;;;;14.30;9.55;;;15.60;99.90;;;;;;5034544;28;20296;-75
2023/04/23 10:44:36;;;;;;;17.33;12.55;;;15.90;99.90;;;;;;5047505;28;20309;-74
2023/04/23 10:47:03;;;;;;;13.73;10.90;;;16.30;99.90;;;;;;5050639;28;20712;-75
2023/04/23 10:49:30;;;;;;;16.10;9.90;;;16.40;99.90;;;;;;5038325;28;20265;-75
2023/04/23 10:52:06;;;;;;;11.63;8.88;;;16.60;99.90;;;;;;5042430;28;20176;-75
2023/04/23 10:54:33;;;;;;;10.80;8.20;;;16.50;99.90;;;;;;5040518;28;20260;-76
2023/04/23 10:57:09;;;;;;;11.88;8.55;;;16.30;99.90;;;;;;5038859;28;20270;-76
2023/04/23 10:59:38;;;;;;;10.45;8.43;;;16.40;99.90;;;;;;5047010;28;20205;-75
2023/04/23 11:02:09;;;;;;;10.50;8.63;;;15.90;99.90;;;;;;5037548;28;20242;-76
2023/04/23 11:04:40;;;;;;;11.23;8.75;;;16.00;99.90;;;;;;5042119;28;20593;-76
2023/04/23 11:07:09;;;;;;;13.25;10.00;;;16.00;99.90;;;;;;5031845;28;20307;-76
2023/04/23 11:09:38;;;;;;;10.38;7.88;;;16.00;99.90;;;;;;5035899;28;20180;-75
2023/04/23 11:12:09;;;;;;;11.07;8.63;;;16.10;99.90;;;;;;5035013;28;20587;-75
2023/04/23 11:14:40;;;;;;;16.23;13.32;;;16.30;99.90;;;;;;5041244;28;20207;-75
2023/04/23 11:17:06;;;;;;;11.15;8.73;;;16.50;99.90;;;;;;5057017;23;20250;-76
2023/04/23 11:19:36;;;;;;;13.35;9.18;;;16.50;99.90;;;;;;5024107;28;20228;-76
2023/04/23 11:22:07;;;;;;;11.88;9.05;;;16.60;99.90;;;;;;5024220;28;20188;-77
2023/04/23 11:24:36;;;;;;;12.50;9.15;;;16.30;99.90;;;;;;5017599;28;20219;-76
2023/04/23 11:27:04;;;;;;;14.48;10.13;;;16.40;99.90;;;;;;5019008;28;20217;-76
2023/04/23 11:29:30;;;;;;;11.07;8.70;;;16.70;99.90;;;;;;5012201;28;20683;-76
2023/04/23 11:31:56;;;;;;;10.02;7.70;;;16.60;99.90;;;;;;5012712;28;20219;-76
2023/04/23 11:34:23;;;;;;;11.73;8.68;;;16.00;99.90;;;;;;5024341;28;20286;-73
2023/04/23 11:36:52;;;;;;;16.08;11.48;;;16.10;99.90;;;;;;5018705;28;20243;-76
2023/04/23 11:39:18;;;;;;;13.40;10.10;;;16.20;99.90;;;;;;5011650;28;20220;-76
2023/04/23 11:41:45;;;;;;;12.45;8.98;;;16.30;99.90;;;;;;5011412;28;20279;-75
2023/04/23 11:44:12;;;;;;;10.65;8.60;;;16.40;99.90;;;;;;5012342;28;20201;-76
2023/04/23 11:46:37;;;;;;;9.65;7.78;;;16.20;99.90;;;;;;5010849;28;20595;-76
2023/04/23 11:49:05;;;;;;;10.60;8.40;;;16.20;99.90;;;;;;5010078;28;20185;-76
2023/04/23 11:51:31;;;;;;;12.75;9.63;;;16.50;99.90;;;;;;5017365;28;20741;-75
2023/04/23 11:54:02;;;;;;;17.27;12.75;;;16.80;99.90;;;;;;5015720;28;20279;-76
2023/04/23 11:56:31;;;;;;;11.00;9.45;;;16.90;99.90;;;;;;5020899;28;20355;-76
2023/04/23 11:59:02;;;;;;;10.13;8.40;;;17.00;99.90;;;;;;5021326;28;20587;-75
2023/04/23 12:01:49;;;;;;;7.95;6.32;;;17.20;99.90;;;;;;5021277;28;20200;-76
2023/04/23 12:04:25;;;;;;;7.10;5.93;;;17.00;99.90;;;;;;5019868;28;20282;-76
2023/04/23 12:06:53;;;;;;;6.70;5.50;;;16.80;99.90;;;;;;5019588;28;20204;-76
2023/04/23 12:09:21;;;;;;;6.10;4.75;;;17.00;99.90;;;;;;5014218;28;20185;-76
2023/04/23 12:11:49;;;;;;;8.23;6.10;;;17.20;99.90;;;;;;5013768;28;20216;-77
2023/04/23 12:14:17;;;;;;;7.22;5.13;;;17.30;99.90;;;;;;5016310;28;20813;-77
2023/04/23 12:16:45;;;;;;;7.00;4.97;;;17.40;99.90;;;;;;5014037;28;20757;-76
2023/04/23 12:19:28;;;;;;;13.65;9.88;;;17.50;99.90;;;;;;5012930;28;20259;-74
2023/04/23 12:21:59;;;;;;;8.82;6.65;;;17.70;99.90;;;;;;5021225;28;20255;-76
2023/04/23 12:24:30;;;;;;;7.00;5.13;;;17.60;99.90;;;;;;5014955;28;20624;-76
2023/04/23 12:27:01;;;;;;;6.93;4.70;;;17.60;99.90;;;;;;5022117;28;20263;-75
2023/04/23 12:29:29;;;;;;;6.80;5.60;;;17.60;99.90;;;;;;5013504;28;20233;-75
2023/04/23 12:31:58;;;;;;;5.72;4.68;;;18.00;99.90;;;;;;5023529;28;20208;-75
2023/04/23 12:34:24;;;;;;;6.53;5.03;;;18.20;99.90;;;;;;5016738;28;20716;-74
2023/04/23 12:36:53;;;;;;;6.63;3.92;;;18.20;99.90;;;;;;5016767;28;20228;-75